Time,TemperatureF,DewpointF,PressureIn,WindDirection,WindDirectionDegrees,WindSpeedMPH,WindSpeedGustMPH,Humidity,HourlyPrecipIn,Conditions,Clouds,dailyrainin,SoftwareType,DateUTC
2013-04-03 00:00:00,53.1,48.1,30.06,ENE,77,0.0,0.0,83,0.00,,CLR,0.00,VWS V14.01,2013-04-03 04:00:00,
2013-04-03 00:03:00,53.0,48.3,30.06,ENE,77,0.0,0.0,84,0.00,,CLR,0.00,VWS V14.01,2013-04-03 04:03:00,
2013-04-03 00:08:00,52.9,48.2,30.06,ENE,76,0.0,0.0,84,0.00,,CLR,0.00,VWS V14.01,2013-04-03 04:08:00,
2013-04-03 00:14:00,52.9,48.2,30.06,ENE,76,0.0,0.0,84,0.00,,CLR,0.00,VWS V14.01,2013-04-03 04:14:00,
2013-04-03 00:15:00,52.8,48.1,30.06,ENE,76,0.0,0.0,84,0.00,,CLR,0.00,VWS V14.01,2013-04-03 04:15:00,
2013-04-03 00:24:00,52.5,48.1,30.06,ENE,76,0.0,0.0,85,0.00,,CLR,0.00,VWS V14.01,2013-04-03 04:24:00,
2013-04-03 00:30:00,52.4,48.3,30.06,ENE,76,0.0,0.0,86,0.00,,CLR,0.00,VWS V14.01,2013-04-03 04:30:00,
2013-04-03 00:35:00,52.3,48.2,30.06,ENE,77,0.0,0.0,86,0.00,,CLR,0.00,VWS V14.01,2013-04-03 04:35:00,
2013-04-03 00:40:00,52.3,48.2,30.07,ENE,77,0.0,0.0,86,0.00,,CLR,0.00,VWS V14.01,2013-04-03 04:40:00,
2013-04-03 00:45:00,52.1,48.0,30.06,ENE,77,0.0,0.0,86,0.00,,CLR,0.00,VWS V14.01,2013-04-03 04:45:00,
2013-04-03 00:46:00,52.0,48.0,30.06,ENE,76,0.0,0.0,86,0.00,,CLR,0.00,VWS V14.01,2013-04-03 04:46:00,
2013-04-03 00:57:00,51.5,47.8,30.07,ENE,77,0.0,0.0,87,0.00,,CLR,0.00,VWS V14.01,2013-04-03 04:57:00,
2013-04-03 01:00:00,51.4,47.7,30.07,ENE,77,0.0,0.0,87,0.00,,CLR,0.00,VWS V14.01,2013-04-03 05:00:00,
2013-04-03 01:02:00,51.3,47.6,30.07,ENE,76,0.0,0.0,87,0.00,,CLR,0.00,VWS V14.01,2013-04-03 05:02:00,
2013-04-03 01:07:00,51.2,47.8,30.06,ENE,77,0.0,0.0,88,0.00,,CLR,0.00,VWS V14.01,2013-04-03 05:07:00,
2013-04-03 01:13:00,51.1,47.7,30.07,ENE,77,0.0,0.0,88,0.00,,CLR,0.00,VWS V14.01,2013-04-03 05:13:00,
2013-04-03 01:15:00,51.1,47.7,30.07,ENE,77,0.0,0.0,88,0.00,,CLR,0.00,VWS V14.01,2013-04-03 05:15:00,
2013-04-03 01:18:00,51.0,47.6,30.07,ENE,76,0.0,0.0,88,0.00,,CLR,0.00,VWS V14.01,2013-04-03 05:18:00,
2013-04-03 01:23:00,51.0,47.9,30.07,ENE,77,0.0,0.0,89,0.00,,CLR,0.00,VWS V14.01,2013-04-03 05:23:00,
2013-04-03 01:29:00,50.9,47.8,30.07,ENE,77,0.0,0.0,89,0.00,,CLR,0.00,VWS V14.01,2013-04-03 05:29:00,
2013-04-03 01:30:00,50.9,47.8,30.07,ENE,76,0.0,0.0,89,0.00,,CLR,0.00,VWS V14.01,2013-04-03 05:30:00,
2013-04-03 01:34:00,50.9,47.8,30.07,ENE,76,0.0,0.0,89,0.00,,CLR,0.00,VWS V14.01,2013-04-03 05:34:00,
2013-04-03 01:39:00,51.3,48.8,30.07,ENE,76,0.0,0.0,91,0.00,,CLR,0.00,VWS V14.01,2013-04-03 05:39:00,
2013-04-03 01:45:00,51.5,49.0,30.07,ENE,77,0.0,0.0,91,0.00,,CLR,0.00,VWS V14.01,2013-04-03 05:45:00,
2013-04-03 01:50:00,51.6,48.8,30.06,ENE,77,0.0,0.0,90,0.00,,CLR,0.00,VWS V14.01,2013-04-03 05:50:00,
2013-04-03 01:56:00,51.6,48.8,30.06,ENE,76,0.0,0.0,90,0.00,,CLR,0.00,VWS V14.01,2013-04-03 05:56:00,
2013-04-03 02:00:00,51.6,48.8,30.06,ENE,77,0.0,0.0,90,0.00,,CLR,0.00,VWS V14.01,2013-04-03 06:00:00,
2013-04-03 02:06:00,51.5,48.7,30.06,ENE,77,0.0,0.0,90,0.00,,CLR,0.00,VWS V14.01,2013-04-03 06:06:00,
2013-04-03 02:12:00,51.4,48.6,30.06,ENE,77,0.0,0.0,90,0.00,,CLR,0.00,VWS V14.01,2013-04-03 06:12:00,
2013-04-03 02:15:00,51.3,48.5,30.05,ENE,77,0.0,0.0,90,0.00,,SCT070,0.00,VWS V14.01,2013-04-03 06:15:00,
2013-04-03 02:17:00,51.3,48.5,30.05,ENE,77,0.0,0.0,90,0.00,,CLR,0.00,VWS V14.01,2013-04-03 06:17:00,
2013-04-03 02:22:00,51.1,48.3,30.05,ENE,76,0.0,0.0,90,0.00,,CLR,0.00,VWS V14.01,2013-04-03 06:22:00,
2013-04-03 02:28:00,50.9,48.1,30.05,ENE,77,0.0,0.0,90,0.00,,CLR,0.00,VWS V14.01,2013-04-03 06:28:00,
2013-04-03 02:30:00,50.8,48.0,30.04,ENE,77,0.0,0.0,90,0.00,,CLR,0.00,VWS V14.01,2013-04-03 06:30:00,
2013-04-03 02:33:00,50.8,48.3,30.04,ENE,77,0.0,0.0,91,0.00,,CLR,0.00,VWS V14.01,2013-04-03 06:33:00,
2013-04-03 02:38:00,50.6,48.1,30.04,ENE,76,0.0,0.0,91,0.00,,CLR,0.00,VWS V14.01,2013-04-03 06:38:00,
2013-04-03 02:44:00,50.5,48.0,30.04,ENE,76,0.0,0.0,91,0.00,,CLR,0.00,VWS V14.01,2013-04-03 06:44:00,
2013-04-03 02:45:00,50.4,47.9,30.04,ENE,76,0.0,0.0,91,0.00,,SCT070,0.00,VWS V14.01,2013-04-03 06:45:00,
2013-04-03 02:49:00,50.3,47.8,30.04,ENE,76,0.0,0.0,91,0.00,,CLR,0.00,VWS V14.01,2013-04-03 06:49:00,
2013-04-03 02:55:00,50.2,47.7,30.03,ENE,77,0.0,0.0,91,0.00,,CLR,0.00,VWS V14.01,2013-04-03 06:55:00,
2013-04-03 03:00:00,50.0,47.5,30.03,ENE,76,0.0,0.0,91,0.00,,CLR,0.00,VWS V14.01,2013-04-03 07:00:00,
2013-04-03 03:05:00,49.9,47.4,30.03,ENE,76,0.0,0.0,91,0.00,,CLR,0.00,VWS V14.01,2013-04-03 07:05:00,
2013-04-03 03:11:00,49.8,47.6,30.03,ENE,77,0.0,0.0,92,0.00,,CLR,0.00,VWS V14.01,2013-04-03 07:11:00,
2013-04-03 03:15:00,49.6,47.4,30.03,ENE,77,0.0,0.0,92,0.00,,CLR,0.00,VWS V14.01,2013-04-03 07:15:00,
2013-04-03 03:16:00,49.6,47.4,30.03,ENE,77,0.0,0.0,92,0.00,,CLR,0.00,VWS V14.01,2013-04-03 07:16:00,
2013-04-03 03:27:00,49.4,47.2,30.03,ENE,76,0.0,0.0,92,0.00,,CLR,0.00,VWS V14.01,2013-04-03 07:27:00,
2013-04-03 03:30:00,49.3,47.1,30.03,ENE,76,0.0,0.0,92,0.00,,CLR,0.00,VWS V14.01,2013-04-03 07:30:00,
2013-04-03 03:32:00,49.2,47.0,30.03,ENE,77,0.0,0.0,92,0.00,,CLR,0.00,VWS V14.01,2013-04-03 07:32:00,
2013-04-03 03:38:00,49.2,47.3,30.03,ENE,76,0.0,0.0,93,0.00,,CLR,0.00,VWS V14.01,2013-04-03 07:38:00,
2013-04-03 03:43:00,49.1,47.2,30.03,ENE,77,0.0,0.0,93,0.00,,CLR,0.00,VWS V14.01,2013-04-03 07:43:00,
2013-04-03 03:45:00,49.1,47.2,30.03,ENE,77,0.0,0.0,93,0.00,,SCT070,0.00,VWS V14.01,2013-04-03 07:45:00,
2013-04-03 03:48:00,49.0,47.1,30.04,ENE,76,0.0,0.0,93,0.00,,CLR,0.00,VWS V14.01,2013-04-03 07:48:00,
2013-04-03 03:54:00,49.0,47.1,30.04,ENE,77,0.0,0.0,93,0.00,,CLR,0.00,VWS V14.01,2013-04-03 07:54:00,
2013-04-03 03:59:00,48.9,47.0,30.04,ENE,76,0.0,0.0,93,0.00,,CLR,0.00,VWS V14.01,2013-04-03 07:59:00,
2013-04-03 04:00:00,48.9,47.0,30.04,ENE,77,0.0,0.0,93,0.00,,CLR,0.00,VWS V14.01,2013-04-03 08:00:00,
2013-04-03 04:04:00,48.8,46.9,30.04,ENE,76,0.0,0.0,93,0.00,,,0.00,VWS V14.01,2013-04-03 08:04:00,
2013-04-03 04:10:00,48.7,46.8,30.04,ENE,77,0.0,0.0,93,0.00,,,0.00,VWS V14.01,2013-04-03 08:10:00,
2013-04-03 04:15:00,48.6,46.7,30.04,ENE,76,0.0,0.0,93,0.00,,,0.00,VWS V14.01,2013-04-03 08:15:00,
2013-04-03 04:20:00,48.4,46.5,30.04,ENE,76,0.0,0.0,93,0.00,,,0.00,VWS V14.01,2013-04-03 08:20:00,
2013-04-03 04:30:00,48.3,46.4,30.04,ENE,77,0.0,0.0,93,0.00,,,0.00,VWS V14.01,2013-04-03 08:30:00,
2013-04-03 04:37:00,48.3,46.7,30.04,ENE,77,0.0,0.0,94,0.00,,,0.00,VWS V14.01,2013-04-03 08:37:00,
2013-04-03 04:42:00,48.2,46.6,30.04,ENE,76,0.0,0.0,94,0.00,,,0.00,VWS V14.01,2013-04-03 08:42:00,
2013-04-03 04:45:00,48.2,47.7,30.04,ENE,77,0.0,0.0,98,0.00,,CLR,0.00,VWS V14.01,2013-04-03 08:45:00,
2013-04-03 04:47:00,48.1,46.2,30.04,ENE,77,0.0,0.0,93,0.00,,,0.00,VWS V14.01,2013-04-03 08:47:00,
2013-04-03 04:53:00,48.1,46.5,30.04,ENE,77,0.0,0.0,94,0.00,,,0.00,VWS V14.01,2013-04-03 08:53:00,
2013-04-03 04:58:00,48.0,46.4,30.04,ENE,77,0.0,0.0,94,0.00,,,0.00,VWS V14.01,2013-04-03 08:58:00,
2013-04-03 05:00:00,48.0,46.4,30.04,ENE,77,0.0,0.0,94,0.00,,CLR,0.00,VWS V14.01,2013-04-03 09:00:00,
2013-04-03 05:03:00,48.0,46.4,30.04,ENE,76,0.0,0.0,94,0.00,,,0.00,VWS V14.01,2013-04-03 09:03:00,
2013-04-03 05:09:00,48.0,46.4,30.05,ENE,77,0.0,0.0,94,0.00,,,0.00,VWS V14.01,2013-04-03 09:09:00,
2013-04-03 05:14:00,48.0,46.4,30.05,ENE,76,0.0,0.0,94,0.00,,,0.00,VWS V14.01,2013-04-03 09:14:00,
2013-04-03 05:15:00,47.9,46.3,30.05,ENE,77,0.0,0.0,94,0.00,,CLR,0.00,VWS V14.01,2013-04-03 09:15:00,
2013-04-03 05:19:00,48.0,46.4,30.05,ENE,76,0.0,0.0,94,0.00,,,0.00,VWS V14.01,2013-04-03 09:19:00,
2013-04-03 05:25:00,47.9,46.3,30.06,NNE,32,0.0,2.0,94,0.00,,,0.00,VWS V14.01,2013-04-03 09:25:00,
2013-04-03 05:30:00,48.1,46.7,30.05,NNE,32,0.0,2.0,95,0.00,,,0.00,VWS V14.01,2013-04-03 09:30:00,
2013-04-03 05:35:00,48.5,47.1,30.05,NNE,32,0.0,1.0,95,0.00,,,0.00,VWS V14.01,2013-04-03 09:35:00,
2013-04-03 05:41:00,48.8,47.4,30.05,NNE,32,0.0,1.0,95,0.00,,,0.00,VWS V14.01,2013-04-03 09:41:00,
2013-04-03 05:45:00,48.8,47.4,30.05,NNE,32,0.0,1.0,95,0.00,,CLR,0.00,VWS V14.01,2013-04-03 09:45:00,
2013-04-03 05:46:00,48.8,47.4,30.05,NNE,32,0.0,0.0,95,0.00,,,0.00,VWS V14.01,2013-04-03 09:46:00,
2013-04-03 05:52:00,48.9,47.5,30.05,NNE,32,0.0,0.0,95,0.00,,,0.00,VWS V14.01,2013-04-03 09:52:00,
2013-04-03 05:57:00,48.9,47.5,30.05,NNE,32,0.0,0.0,95,0.00,,,0.00,VWS V14.01,2013-04-03 09:57:00,
2013-04-03 06:00:00,48.8,47.4,30.05,NNE,32,0.0,0.0,95,0.00,,CLR,0.00,VWS V14.01,2013-04-03 10:00:00,
2013-04-03 06:02:00,48.8,47.4,30.06,NNE,32,0.0,0.0,95,0.00,,CLR,0.00,VWS V14.01,2013-04-03 10:02:00,
2013-04-03 06:08:00,48.7,47.3,30.06,NNE,32,0.0,0.0,95,0.00,,CLR,0.00,VWS V14.01,2013-04-03 10:08:00,
2013-04-03 06:13:00,48.6,47.2,30.06,NNE,32,0.0,0.0,95,0.00,,CLR,0.00,VWS V14.01,2013-04-03 10:13:00,
2013-04-03 06:15:00,48.5,47.1,30.06,NNE,32,0.0,0.0,95,0.00,,CLR,0.00,VWS V14.01,2013-04-03 10:15:00,
2013-04-03 06:18:00,48.4,47.0,30.06,NNE,32,0.0,0.0,95,0.00,,CLR,0.00,VWS V14.01,2013-04-03 10:18:00,
2013-04-03 06:24:00,48.2,46.8,30.07,NNE,32,0.0,0.0,95,0.00,,CLR,0.00,VWS V14.01,2013-04-03 10:24:00,
2013-04-03 06:29:00,48.1,46.7,30.07,NNE,32,0.0,0.0,95,0.00,,CLR,0.00,VWS V14.01,2013-04-03 10:29:00,
2013-04-03 06:30:00,48.0,46.6,30.07,NNE,32,0.0,0.0,95,0.00,,CLR,0.00,VWS V14.01,2013-04-03 10:30:00,
2013-04-03 06:34:00,47.9,46.5,30.07,NNE,32,0.0,0.0,95,0.00,,CLR,0.00,VWS V14.01,2013-04-03 10:34:00,
2013-04-03 06:40:00,47.8,46.4,30.07,NNE,32,0.0,0.0,95,0.00,,CLR,0.00,VWS V14.01,2013-04-03 10:40:00,
2013-04-03 06:45:00,47.7,46.3,30.08,NNE,32,0.0,0.0,95,0.00,,CLR,0.00,VWS V14.01,2013-04-03 10:45:00,
2013-04-03 06:50:00,47.8,46.4,30.09,NNE,32,1.0,1.0,95,0.00,,CLR,0.00,VWS V14.01,2013-04-03 10:50:00,
2013-04-03 07:00:00,48.6,47.5,30.09,NNE,32,0.0,1.0,96,0.00,,CLR,0.00,VWS V14.01,2013-04-03 11:00:00,
2013-04-03 07:07:00,49.3,48.2,30.10,NNW,334,0.0,2.0,96,0.00,,CLR,0.00,VWS V14.01,2013-04-03 11:07:00,
2013-04-03 07:12:00,49.6,48.5,30.10,NNW,335,1.0,2.0,96,0.00,,CLR,0.00,VWS V14.01,2013-04-03 11:12:00,
2013-04-03 07:15:00,49.7,48.6,30.11,NNW,335,0.0,2.0,96,0.00,,CLR,0.00,VWS V14.01,2013-04-03 11:15:00,
2013-04-03 07:18:00,49.8,48.7,30.11,NNW,334,0.0,2.0,96,0.00,,CLR,0.00,VWS V14.01,2013-04-03 11:18:00,
2013-04-03 07:23:00,49.9,48.8,30.12,NNW,335,0.0,2.0,96,0.00,,CLR,0.00,VWS V14.01,2013-04-03 11:23:00,
2013-04-03 07:28:00,49.9,48.5,30.12,NNW,335,0.0,2.0,95,0.00,,CLR,0.00,VWS V14.01,2013-04-03 11:28:00,
2013-04-03 07:30:00,50.0,48.6,30.12,NNW,335,0.0,2.0,95,0.00,,SCT070,0.00,VWS V14.01,2013-04-03 11:30:00,
2013-04-03 07:34:00,50.0,48.6,30.12,NNW,335,0.0,1.0,95,0.00,,CLR,0.00,VWS V14.01,2013-04-03 11:34:00,
2013-04-03 07:39:00,50.1,48.7,30.13,NNW,335,0.0,1.0,95,0.00,,CLR,0.00,VWS V14.01,2013-04-03 11:39:00,
2013-04-03 07:44:00,50.2,48.8,30.13,NNW,337,1.0,2.0,95,0.00,,CLR,0.00,VWS V14.01,2013-04-03 11:44:00,
2013-04-03 07:45:00,50.2,48.8,30.13,NNW,337,1.0,2.0,95,0.00,,CLR,0.00,VWS V14.01,2013-04-03 11:45:00,
2013-04-03 07:50:00,50.4,48.7,30.13,NNW,337,0.0,1.0,94,0.00,,CLR,0.00,VWS V14.01,2013-04-03 11:50:00,
2013-04-03 07:55:00,50.5,48.8,30.13,NW,317,0.0,4.0,94,0.00,,CLR,0.00,VWS V14.01,2013-04-03 11:55:00,
2013-04-03 08:00:00,50.6,48.7,30.14,NNW,327,1.0,4.0,93,0.00,,CLR,0.00,VWS V14.01,2013-04-03 12:00:00,
2013-04-03 08:06:00,50.7,48.8,30.14,NW,309,0.0,2.0,93,0.00,,CLR,0.00,VWS V14.01,2013-04-03 12:06:00,
2013-04-03 08:11:00,50.8,48.6,30.14,NNE,31,0.0,2.0,92,0.00,,CLR,0.00,VWS V14.01,2013-04-03 12:11:00,
2013-04-03 08:15:00,50.9,48.7,30.14,NE,38,2.0,5.0,92,0.00,,CLR,0.00,VWS V14.01,2013-04-03 12:15:00,
2013-04-03 08:17:00,50.9,48.4,30.15,NE,39,0.0,3.0,91,0.00,,CLR,0.00,VWS V14.01,2013-04-03 12:17:00,
2013-04-03 08:22:00,51.0,48.2,30.15,WNW,288,1.0,5.0,90,0.00,,CLR,0.00,VWS V14.01,2013-04-03 12:22:00,
2013-04-03 08:27:00,51.1,48.3,30.15,NW,321,0.0,5.0,90,0.00,,CLR,0.00,VWS V14.01,2013-04-03 12:27:00,
2013-04-03 08:30:00,51.1,48.0,30.15,NNW,344,0.0,5.0,89,0.00,,CLR,0.00,VWS V14.01,2013-04-03 12:30:00,
2013-04-03 08:33:00,51.2,48.1,30.15,NNW,344,0.0,2.0,89,0.00,,CLR,0.00,VWS V14.01,2013-04-03 12:33:00,
2013-04-03 08:38:00,51.3,47.9,30.14,North,360,0.0,3.0,88,0.00,,CLR,0.00,VWS V14.01,2013-04-03 12:38:00,
2013-04-03 08:43:00,51.4,47.7,30.14,NE,34,0.0,5.0,87,0.00,,CLR,0.00,VWS V14.01,2013-04-03 12:43:00,
2013-04-03 08:45:00,51.4,47.7,30.14,NNE,33,0.0,5.0,87,0.00,,CLR,0.00,VWS V14.01,2013-04-03 12:45:00,
2013-04-03 08:49:00,51.5,47.8,30.14,NW,313,0.0,2.0,87,0.00,,CLR,0.00,VWS V14.01,2013-04-03 12:49:00,
2013-04-03 08:54:00,51.7,47.3,30.15,NNE,18,1.0,5.0,85,0.00,,CLR,0.00,VWS V14.01,2013-04-03 12:54:00,
2013-04-03 08:59:00,51.8,46.8,30.15,WNW,303,0.0,5.0,83,0.00,,CLR,0.00,VWS V14.01,2013-04-03 12:59:00,
2013-04-03 09:00:00,51.8,46.8,30.15,NW,305,0.0,5.0,83,0.00,,CLR,0.00,VWS V14.01,2013-04-03 13:00:00,
2013-04-03 09:05:00,51.8,46.5,30.15,NW,312,2.0,4.0,82,0.00,,CLR,0.00,VWS V14.01,2013-04-03 13:05:00,
2013-04-03 09:10:00,51.9,45.6,30.15,NW,318,0.0,6.0,79,0.00,,CLR,0.00,VWS V14.01,2013-04-03 13:10:00,
2013-04-03 09:15:00,52.1,45.5,30.15,NW,313,1.0,4.0,78,0.00,,CLR,0.00,VWS V14.01,2013-04-03 13:15:00,
2013-04-03 09:26:00,52.6,44.2,30.15,NE,44,1.0,6.0,73,0.00,,CLR,0.00,VWS V14.01,2013-04-03 13:26:00,
2013-04-03 09:30:00,52.8,44.0,30.15,NW,324,3.0,6.0,72,0.00,,SCT070,0.00,VWS V14.01,2013-04-03 13:30:00,
2013-04-03 09:32:00,52.9,44.1,30.15,North,11,0.0,3.0,72,0.00,,CLR,0.00,VWS V14.01,2013-04-03 13:32:00,
2013-04-03 09:37:00,53.4,43.9,30.15,NNE,33,2.0,5.0,70,0.00,,CLR,0.00,VWS V14.01,2013-04-03 13:37:00,
2013-04-03 09:43:00,53.7,42.6,30.15,NNW,330,0.0,6.0,66,0.00,,CLR,0.00,VWS V14.01,2013-04-03 13:43:00,
2013-04-03 09:45:00,53.9,42.8,30.15,ENE,64,3.0,6.0,66,0.00,,CLR,0.00,VWS V14.01,2013-04-03 13:45:00,
2013-04-03 09:48:00,54.1,42.6,30.15,East,95,2.0,5.0,65,0.00,,CLR,0.00,VWS V14.01,2013-04-03 13:48:00,
2013-04-03 09:53:00,54.6,42.7,30.16,NW,306,0.0,5.0,64,0.00,,CLR,0.00,VWS V14.01,2013-04-03 13:53:00,
2013-04-03 09:59:00,55.1,42.3,30.16,ENE,63,0.0,5.0,62,0.00,,CLR,0.00,VWS V14.01,2013-04-03 13:59:00,
2013-04-03 10:00:00,55.2,42.0,30.16,ENE,63,0.0,5.0,61,0.00,,CLR,0.00,VWS V14.01,2013-04-03 14:00:00,
2013-04-03 10:04:00,55.5,41.0,30.16,NNW,331,0.0,7.0,58,0.00,,CLR,0.00,VWS V14.01,2013-04-03 14:04:00,
2013-04-03 10:09:00,55.8,40.8,30.16,NE,45,5.0,7.0,57,0.00,,CLR,0.00,VWS V14.01,2013-04-03 14:09:00,
2013-04-03 10:15:00,56.1,40.6,30.17,East,79,1.0,7.0,56,0.00,,CLR,0.00,VWS V14.01,2013-04-03 14:15:00,
2013-04-03 10:20:00,56.4,40.5,30.17,ENE,63,0.0,5.0,55,0.00,,CLR,0.00,VWS V14.01,2013-04-03 14:20:00,
2013-04-03 10:25:00,56.4,39.5,30.17,East,98,2.0,6.0,53,0.00,,CLR,0.00,VWS V14.01,2013-04-03 14:25:00,
2013-04-03 10:30:00,56.5,39.6,30.18,NE,49,5.0,6.0,53,0.00,,CLR,0.00,VWS V14.01,2013-04-03 14:30:00,
2013-04-03 10:31:00,56.5,39.1,30.18,NE,42,0.0,5.0,52,0.00,,CLR,0.00,VWS V14.01,2013-04-03 14:31:00,
2013-04-03 10:36:00,56.3,38.9,30.17,NE,43,0.0,7.0,52,0.00,,CLR,0.00,VWS V14.01,2013-04-03 14:36:00,
2013-04-03 10:45:00,56.6,38.2,30.18,NNE,18,2.0,8.0,50,0.00,,CLR,0.00,VWS V14.01,2013-04-03 14:45:00,
2013-04-03 10:52:00,56.5,38.6,30.18,ESE,102,0.0,9.0,51,0.00,,CLR,0.00,VWS V14.01,2013-04-03 14:52:00,
2013-04-03 11:00:00,57.0,38.6,30.18,NW,318,4.0,9.0,50,0.00,,CLR,0.00,VWS V14.01,2013-04-03 15:00:00,
2013-04-03 11:09:00,57.2,38.2,30.18,ENE,75,0.0,5.0,49,0.00,,CLR,0.00,VWS V14.01,2013-04-03 15:09:00,
2013-04-03 11:14:00,57.3,37.8,30.18,NNW,347,3.0,6.0,48,0.00,,CLR,0.00,VWS V14.01,2013-04-03 15:14:00,
2013-04-03 11:15:00,57.3,37.3,30.18,NW,315,0.0,6.0,47,0.00,,CLR,0.00,VWS V14.01,2013-04-03 15:15:00,
2013-04-03 11:19:00,57.5,38.0,30.18,East,93,0.0,5.0,48,0.00,,CLR,0.00,VWS V14.01,2013-04-03 15:19:00,
2013-04-03 11:25:00,57.5,38.0,30.19,NNE,19,0.0,5.0,48,0.00,,CLR,0.00,VWS V14.01,2013-04-03 15:25:00,
2013-04-03 11:30:00,57.5,38.0,30.19,South,189,0.0,6.0,48,0.00,,CLR,0.00,VWS V14.01,2013-04-03 15:30:00,
2013-04-03 11:36:00,57.7,37.6,30.19,NNW,333,3.0,5.0,47,0.00,,CLR,0.00,VWS V14.01,2013-04-03 15:36:00,
2013-04-03 11:41:00,57.9,37.8,30.19,NW,321,1.0,6.0,47,0.00,,CLR,0.00,VWS V14.01,2013-04-03 15:41:00,
2013-04-03 11:45:00,57.9,37.3,30.19,NW,304,0.0,6.0,46,0.00,,CLR,0.00,VWS V14.01,2013-04-03 15:45:00,
2013-04-03 11:46:00,58.0,37.9,30.19,NW,306,0.0,1.0,47,0.00,,CLR,0.00,VWS V14.01,2013-04-03 15:46:00,
2013-04-03 11:52:00,58.0,39.0,30.19,NE,41,0.0,2.0,49,0.00,,CLR,0.00,VWS V14.01,2013-04-03 15:52:00,
2013-04-03 11:57:00,58.0,36.8,30.18,East,90,3.0,6.0,45,0.00,,CLR,0.00,VWS V14.01,2013-04-03 15:57:00,
2013-04-03 12:00:00,57.9,37.3,30.18,ENE,66,0.0,6.0,46,0.00,,SCT070,0.00,VWS V14.01,2013-04-03 16:00:00,
2013-04-03 12:03:00,57.9,37.3,30.18,ENE,74,1.0,5.0,46,0.00,,CLR,0.00,VWS V14.01,2013-04-03 16:03:00,
2013-04-03 12:08:00,58.2,37.5,30.18,NNW,335,0.0,5.0,46,0.00,,CLR,0.00,VWS V14.01,2013-04-03 16:08:00,
2013-04-03 12:13:00,58.6,38.5,30.18,NNE,13,0.0,7.0,47,0.00,,CLR,0.00,VWS V14.01,2013-04-03 16:13:00,
2013-04-03 12:15:00,58.9,37.6,30.18,ESE,102,1.0,9.0,45,0.00,,CLR,0.00,VWS V14.01,2013-04-03 16:15:00,
2013-04-03 12:19:00,58.7,37.4,30.18,NNW,336,0.0,4.0,45,0.00,,CLR,0.00,VWS V14.01,2013-04-03 16:19:00,
2013-04-03 12:24:00,59.0,37.1,30.17,ENE,65,1.0,4.0,44,0.00,,CLR,0.00,VWS V14.01,2013-04-03 16:24:00,
2013-04-03 12:30:00,59.0,37.1,30.17,ESE,111,0.0,6.0,44,0.00,,CLR,0.00,VWS V14.01,2013-04-03 16:30:00,
2013-04-03 12:35:00,59.0,37.7,30.17,NNE,13,1.0,6.0,45,0.00,,CLR,0.00,VWS V14.01,2013-04-03 16:35:00,
2013-04-03 12:40:00,59.0,37.1,30.17,NE,51,0.0,7.0,44,0.00,,CLR,0.00,VWS V14.01,2013-04-03 16:40:00,
2013-04-03 12:45:00,59.0,37.7,30.17,ESE,111,3.0,7.0,45,0.00,,CLR,0.00,VWS V14.01,2013-04-03 16:45:00,
2013-04-03 12:46:00,59.0,37.1,30.17,ESE,111,0.0,3.0,44,0.00,,CLR,0.00,VWS V14.01,2013-04-03 16:46:00,
2013-04-03 12:51:00,59.2,37.3,30.17,ENE,64,2.0,5.0,44,0.00,,CLR,0.00,VWS V14.01,2013-04-03 16:51:00,
2013-04-03 12:56:00,59.5,37.0,30.17,North,355,1.0,5.0,43,0.00,,CLR,0.00,VWS V14.01,2013-04-03 16:56:00,
2013-04-03 13:00:00,59.8,38.4,30.17,NNE,15,0.0,5.0,45,0.00,,SCT070,0.00,VWS V14.01,2013-04-03 17:00:00,
2013-04-03 13:02:00,60.0,38.0,30.16,NE,52,2.0,4.0,44,0.00,,CLR,0.00,VWS V14.01,2013-04-03 17:02:00,
2013-04-03 13:07:00,60.5,37.9,30.16,NE,43,1.0,6.0,43,0.00,,CLR,0.00,VWS V14.01,2013-04-03 17:07:00,
2013-04-03 13:13:00,60.2,37.6,30.16,NW,306,0.0,7.0,43,0.00,,CLR,0.00,VWS V14.01,2013-04-03 17:13:00,
2013-04-03 13:15:00,60.4,37.8,30.16,NW,304,0.0,7.0,43,0.00,,CLR,0.00,VWS V14.01,2013-04-03 17:15:00,
2013-04-03 13:18:00,60.3,37.7,30.16,NNE,25,2.0,8.0,43,0.00,,CLR,0.00,VWS V14.01,2013-04-03 17:18:00,
2013-04-03 13:23:00,60.4,38.4,30.16,North,360,0.0,8.0,44,0.00,,CLR,0.00,VWS V14.01,2013-04-03 17:23:00,
2013-04-03 13:29:00,61.1,38.5,30.15,ENE,72,2.0,8.0,43,0.00,,CLR,0.00,VWS V14.01,2013-04-03 17:29:00,
2013-04-03 13:30:00,61.1,38.5,30.15,ENE,78,0.0,8.0,43,0.00,,SCT070,0.00,VWS V14.01,2013-04-03 17:30:00,
2013-04-03 13:34:00,60.9,37.7,30.15,NE,42,0.0,6.0,42,0.00,,CLR,0.00,VWS V14.01,2013-04-03 17:34:00,
2013-04-03 13:45:00,60.4,37.2,30.15,NNW,327,2.0,7.0,42,0.00,,CLR,0.00,VWS V14.01,2013-04-03 17:45:00,
2013-04-03 13:50:00,60.5,37.3,30.15,ENE,63,2.0,5.0,42,0.00,,CLR,0.00,VWS V14.01,2013-04-03 17:50:00,
2013-04-03 13:56:00,60.6,38.6,30.15,East,84,0.0,6.0,44,0.00,,CLR,0.00,VWS V14.01,2013-04-03 17:56:00,
2013-04-03 14:00:00,60.7,38.1,30.15,ENE,74,0.0,6.0,43,0.00,,CLR,0.00,VWS V14.01,2013-04-03 18:00:00,
2013-04-03 14:07:00,61.1,38.5,30.15,ESE,121,4.0,5.0,43,0.00,,CLR,0.00,VWS V14.01,2013-04-03 18:07:00,
2013-04-03 14:12:00,61.4,38.1,30.14,ENE,58,1.0,6.0,42,0.00,,CLR,0.00,VWS V14.01,2013-04-03 18:12:00,
2013-04-03 14:15:00,61.2,38.0,30.14,NE,36,0.0,6.0,42,0.00,,SCT070,0.00,VWS V14.01,2013-04-03 18:15:00,
2013-04-03 14:17:00,61.2,38.5,30.14,NE,36,1.0,5.0,43,0.00,,CLR,0.00,VWS V14.01,2013-04-03 18:17:00,
2013-04-03 14:23:00,61.3,38.6,30.14,ENE,72,1.0,5.0,43,0.00,,CLR,0.00,VWS V14.01,2013-04-03 18:23:00,
2013-04-03 14:28:00,61.3,38.6,30.13,ENE,69,0.0,5.0,43,0.00,,CLR,0.00,VWS V14.01,2013-04-03 18:28:00,
2013-04-03 14:30:00,61.1,37.9,30.14,South,183,1.0,5.0,42,0.00,,CLR,0.00,VWS V14.01,2013-04-03 18:30:00,
2013-04-03 14:39:00,60.9,39.4,30.14,NE,40,0.0,5.0,45,0.00,,CLR,0.00,VWS V14.01,2013-04-03 18:39:00,
2013-04-03 14:44:00,61.4,39.3,30.14,NW,311,0.0,5.0,44,0.00,,CLR,0.00,VWS V14.01,2013-04-03 18:44:00,
2013-04-03 14:45:00,61.5,39.4,30.14,NW,311,0.0,5.0,44,0.00,,CLR,0.00,VWS V14.01,2013-04-03 18:45:00,
2013-04-03 14:50:00,61.8,38.5,30.14,ENE,72,2.0,6.0,42,0.00,,CLR,0.00,VWS V14.01,2013-04-03 18:50:00,
2013-04-03 14:55:00,61.7,39.0,30.14,NW,325,3.0,6.0,43,0.00,,CLR,0.00,VWS V14.01,2013-04-03 18:55:00,
2013-04-03 15:00:00,61.8,39.7,30.14,NNW,334,0.0,1.0,44,0.00,,CLR,0.00,VWS V14.01,2013-04-03 19:00:00,
2013-04-03 15:11:00,62.0,39.3,30.13,NE,52,0.0,6.0,43,0.00,,CLR,0.00,VWS V14.01,2013-04-03 19:11:00,
2013-04-03 15:15:00,62.2,40.0,30.13,NNW,333,2.0,6.0,44,0.00,,SCT070,0.00,VWS V14.01,2013-04-03 19:15:00,
2013-04-03 15:17:00,62.3,39.5,30.13,NW,315,1.0,4.0,43,0.00,,CLR,0.00,VWS V14.01,2013-04-03 19:17:00,
2013-04-03 15:22:00,62.7,39.9,30.12,ESE,107,0.0,4.0,43,0.00,,CLR,0.00,VWS V14.01,2013-04-03 19:22:00,
2013-04-03 15:27:00,62.5,39.1,30.13,East,98,1.0,5.0,42,0.00,,CLR,0.00,VWS V14.01,2013-04-03 19:27:00,
2013-04-03 15:30:00,62.7,40.5,30.13,NNW,333,0.0,5.0,44,0.00,,CLR,0.00,VWS V14.01,2013-04-03 19:30:00,
2013-04-03 15:33:00,62.9,40.1,30.13,NE,56,0.0,3.0,43,0.00,,CLR,0.00,VWS V14.01,2013-04-03 19:33:00,
2013-04-03 15:38:00,63.5,40.6,30.13,NNE,25,3.0,4.0,43,0.00,,CLR,0.00,VWS V14.01,2013-04-03 19:38:00,
2013-04-03 15:45:00,63.6,40.1,30.13,NNE,24,0.0,4.0,42,0.00,,CLR,0.00,VWS V14.01,2013-04-03 19:45:00,
2013-04-03 16:00:00,63.3,39.8,30.13,WNW,294,0.0,5.0,42,0.00,,CLR,0.00,VWS V14.01,2013-04-03 20:00:00,
2013-04-03 16:05:00,63.4,40.5,30.13,NNE,22,0.0,4.0,43,0.00,,CLR,0.00,VWS V14.01,2013-04-03 20:05:00,
2013-04-03 16:11:00,63.3,41.0,30.13,NNE,22,1.0,4.0,44,0.00,,CLR,0.00,VWS V14.01,2013-04-03 20:11:00,
2013-04-03 16:15:00,63.4,39.9,30.13,NNE,21,0.0,4.0,42,0.00,,CLR,0.00,VWS V14.01,2013-04-03 20:15:00,
2013-04-03 16:16:00,63.3,40.5,30.13,NNE,21,0.0,0.0,43,0.00,,CLR,0.00,VWS V14.01,2013-04-03 20:16:00,
2013-04-03 16:21:00,63.1,40.3,30.13,North,5,1.0,4.0,43,0.00,,CLR,0.00,VWS V14.01,2013-04-03 20:21:00,
2013-04-03 16:27:00,63.0,40.8,30.13,NNE,13,0.0,4.0,44,0.00,,CLR,0.00,VWS V14.01,2013-04-03 20:27:00,
2013-04-03 16:30:00,63.0,40.2,30.13,NNW,329,0.0,4.0,43,0.00,,SCT070,0.00,VWS V14.01,2013-04-03 20:30:00,
2013-04-03 16:32:00,63.0,40.2,30.13,NNW,337,0.0,1.0,43,0.00,,CLR,0.00,VWS V14.01,2013-04-03 20:32:00,
2013-04-03 16:37:00,62.7,39.9,30.13,NNW,337,0.0,2.0,43,0.00,,CLR,0.00,VWS V14.01,2013-04-03 20:37:00,
2013-04-03 16:43:00,62.5,40.3,30.14,NW,320,0.0,2.0,44,0.00,,CLR,0.00,VWS V14.01,2013-04-03 20:43:00,
2013-04-03 16:45:00,62.4,40.8,30.14,North,5,0.0,4.0,45,0.00,,CLR,0.00,VWS V14.01,2013-04-03 20:45:00,
2013-04-03 16:48:00,62.4,40.2,30.14,North,360,1.0,1.0,44,0.00,,CLR,0.00,VWS V14.01,2013-04-03 20:48:00,
2013-04-03 16:53:00,62.2,40.0,30.13,North,360,0.0,2.0,44,0.00,,CLR,0.00,VWS V14.01,2013-04-03 20:53:00,
2013-04-03 16:59:00,62.3,41.3,30.14,North,360,0.0,2.0,46,0.00,,CLR,0.00,VWS V14.01,2013-04-03 20:59:00,
2013-04-03 17:00:00,62.3,41.3,30.13,North,11,2.0,4.0,46,0.00,,CLR,0.00,VWS V14.01,2013-04-03 21:00:00,
2013-04-03 17:04:00,62.3,40.7,30.14,North,11,0.0,2.0,45,0.00,,CLR,0.00,VWS V14.01,2013-04-03 21:04:00,
2013-04-03 17:09:00,62.3,40.7,30.13,NW,304,0.0,3.0,45,0.00,,CLR,0.00,VWS V14.01,2013-04-03 21:09:00,
2013-04-03 17:15:00,62.2,40.6,30.13,NNW,344,0.0,3.0,45,0.00,,CLR,0.00,VWS V14.01,2013-04-03 21:15:00,
2013-04-03 17:20:00,62.2,41.2,30.13,NNW,344,1.0,1.0,46,0.00,,CLR,0.00,VWS V14.01,2013-04-03 21:20:00,
2013-04-03 17:26:00,62.2,40.6,30.13,NNW,341,0.0,2.0,45,0.00,,CLR,0.00,VWS V14.01,2013-04-03 21:26:00,
2013-04-03 17:30:00,62.2,40.6,30.13,NNW,337,0.0,3.0,45,0.00,,CLR,0.00,VWS V14.01,2013-04-03 21:30:00,
2013-04-03 17:36:00,62.1,40.5,30.13,NW,326,0.0,5.0,45,0.00,,CLR,0.00,VWS V14.01,2013-04-03 21:36:00,
2013-04-03 17:42:00,62.1,41.7,30.13,NNW,327,0.0,5.0,47,0.00,,CLR,0.00,VWS V14.01,2013-04-03 21:42:00,
2013-04-03 17:45:00,62.1,40.5,30.13,NW,326,0.0,5.0,45,0.00,,CLR,0.00,VWS V14.01,2013-04-03 21:45:00,
2013-04-03 17:47:00,62.1,40.5,30.13,NW,326,0.0,2.0,45,0.00,,CLR,0.00,VWS V14.01,2013-04-03 21:47:00,
2013-04-03 17:52:00,62.0,41.0,30.13,NNW,327,0.0,2.0,46,0.00,,CLR,0.00,VWS V14.01,2013-04-03 21:52:00,
2013-04-03 17:58:00,61.9,40.9,30.13,NNW,327,0.0,2.0,46,0.00,,CLR,0.00,VWS V14.01,2013-04-03 21:58:00,
2013-04-03 18:00:00,61.8,40.8,30.13,NNW,327,0.0,2.0,46,0.00,,CLR,0.00,VWS V14.01,2013-04-03 22:00:00,
2013-04-03 18:03:00,61.7,40.7,30.13,NW,326,0.0,0.0,46,0.00,,BKN090,0.00,VWS V14.01,2013-04-03 22:03:00,
2013-04-03 18:09:00,61.6,40.6,30.13,NNW,327,0.0,1.0,46,0.00,,BKN090,0.00,VWS V14.01,2013-04-03 22:09:00,
2013-04-03 18:14:00,61.4,40.5,30.13,NNW,327,0.0,1.0,46,0.00,,BKN090,0.00,VWS V14.01,2013-04-03 22:14:00,
2013-04-03 18:15:00,61.3,40.9,30.13,NNW,327,1.0,1.0,47,0.00,,CLR,0.00,VWS V14.01,2013-04-03 22:15:00,
2013-04-03 18:19:00,61.2,40.8,30.13,NW,326,0.0,1.0,47,0.00,,BKN090,0.00,VWS V14.01,2013-04-03 22:19:00,
2013-04-03 18:25:00,61.0,40.7,30.13,NNW,327,0.0,1.0,47,0.00,,BKN090,0.00,VWS V14.01,2013-04-03 22:25:00,
2013-04-03 18:30:00,60.9,41.1,30.13,NNW,334,0.0,0.0,48,0.00,,BKN090,0.00,VWS V14.01,2013-04-03 22:30:00,
2013-04-03 18:35:00,60.8,40.5,30.13,NNW,340,0.0,5.0,47,0.00,,BKN090,0.00,VWS V14.01,2013-04-03 22:35:00,
2013-04-03 18:45:00,60.6,40.3,30.14,North,10,0.0,5.0,47,0.00,,BKN090,0.00,VWS V14.01,2013-04-03 22:45:00,
2013-04-03 18:52:00,60.4,40.6,30.14,North,11,0.0,2.0,48,0.00,,BKN090,0.00,VWS V14.01,2013-04-03 22:52:00,
2013-04-03 18:57:00,60.3,40.5,30.14,North,11,0.0,2.0,48,0.00,,BKN090,0.00,VWS V14.01,2013-04-03 22:57:00,
2013-04-03 19:00:00,60.2,40.5,30.14,North,10,0.0,2.0,48,0.00,,CLR,0.00,VWS V14.01,2013-04-03 23:00:00,
2013-04-03 19:02:00,60.1,40.9,30.14,North,10,0.0,0.0,49,0.00,,CLR,0.00,VWS V14.01,2013-04-03 23:02:00,
2013-04-03 19:08:00,59.9,40.2,30.14,North,11,0.0,1.0,48,0.00,,CLR,0.00,VWS V14.01,2013-04-03 23:08:00,
2013-04-03 19:13:00,59.8,40.1,30.14,North,11,0.0,1.0,48,0.00,,CLR,0.00,VWS V14.01,2013-04-03 23:13:00,
2013-04-03 19:15:00,59.7,40.0,30.15,North,11,0.0,1.0,48,0.00,,SCT070,0.00,VWS V14.01,2013-04-03 23:15:00,
2013-04-03 19:18:00,59.6,40.4,30.15,North,10,1.0,2.0,49,0.00,,CLR,0.00,VWS V14.01,2013-04-03 23:18:00,
2013-04-03 19:29:00,59.3,40.7,30.15,North,11,0.0,2.0,50,0.00,,CLR,0.00,VWS V14.01,2013-04-03 23:29:00,
2013-04-03 19:30:00,59.3,40.7,30.15,North,11,0.0,2.0,50,0.00,,CLR,0.00,VWS V14.01,2013-04-03 23:30:00,
2013-04-03 19:35:00,59.0,40.4,30.15,North,10,0.0,1.0,50,0.00,,CLR,0.00,VWS V14.01,2013-04-03 23:35:00,
2013-04-03 19:40:00,59.0,40.9,30.15,North,11,0.0,1.0,51,0.00,,CLR,0.00,VWS V14.01,2013-04-03 23:40:00,
2013-04-03 19:45:00,59.0,40.4,30.15,North,11,0.0,1.0,50,0.00,,CLR,0.00,VWS V14.01,2013-04-03 23:45:00,
2013-04-03 19:56:00,58.5,40.5,30.15,North,10,0.0,2.0,51,0.00,,CLR,0.00,VWS V14.01,2013-04-03 23:56:00,
2013-04-03 20:00:00,58.4,39.8,30.15,North,10,0.0,2.0,50,0.00,,CLR,0.00,VWS V14.01,2013-04-04 00:00:00,
2013-04-03 20:02:00,58.4,40.4,30.15,North,11,0.0,0.0,51,0.00,,FEW095,0.00,VWS V14.01,2013-04-04 00:02:00,
2013-04-03 20:07:00,58.2,40.2,30.16,North,11,0.0,0.0,51,0.00,,FEW095,0.00,VWS V14.01,2013-04-04 00:07:00,
2013-04-03 20:12:00,58.1,40.1,30.16,North,11,0.0,1.0,51,0.00,,FEW095,0.00,VWS V14.01,2013-04-04 00:12:00,
2013-04-03 20:15:00,58.0,40.0,30.16,North,11,0.0,1.0,51,0.00,,SCT070,0.00,VWS V14.01,2013-04-04 00:15:00,
2013-04-03 20:18:00,58.0,39.5,30.16,North,10,0.0,1.0,50,0.00,,FEW095,0.00,VWS V14.01,2013-04-04 00:18:00,
2013-04-03 20:23:00,57.9,39.9,30.16,NW,322,0.0,2.0,51,0.00,,FEW095,0.00,VWS V14.01,2013-04-04 00:23:00,
2013-04-03 20:30:00,57.8,39.8,30.16,NW,323,0.0,2.0,51,0.00,,FEW095,0.00,VWS V14.01,2013-04-04 00:30:00,
2013-04-03 20:39:00,57.7,39.7,30.16,NW,319,0.0,1.0,51,0.00,,FEW095,0.00,VWS V14.01,2013-04-04 00:39:00,
2013-04-03 20:45:00,57.7,39.7,30.16,NW,319,0.0,1.0,51,0.00,,FEW095,0.00,VWS V14.01,2013-04-04 00:45:00,
2013-04-03 20:50:00,57.6,39.6,30.16,NW,322,0.0,1.0,51,0.00,,FEW095,0.00,VWS V14.01,2013-04-04 00:50:00,
2013-04-03 20:55:00,57.6,40.1,30.16,NW,322,0.0,1.0,52,0.00,,FEW095,0.00,VWS V14.01,2013-04-04 00:55:00,
2013-04-03 21:00:00,57.5,40.0,30.17,NW,323,0.0,1.0,52,0.00,,CLR,0.00,VWS V14.01,2013-04-04 01:00:00,
2013-04-03 21:01:00,57.5,40.0,30.16,NW,322,0.0,0.0,52,0.00,,OVC090,0.00,VWS V14.01,2013-04-04 01:01:00,
2013-04-03 21:06:00,57.4,39.9,30.16,North,355,0.0,4.0,52,0.00,,OVC090,0.00,VWS V14.01,2013-04-04 01:06:00,
2013-04-03 21:12:00,57.4,39.9,30.17,North,355,0.0,4.0,52,0.00,,OVC090,0.00,VWS V14.01,2013-04-04 01:12:00,
2013-04-03 21:15:00,57.3,39.8,30.17,North,355,0.0,4.0,52,0.00,,CLR,0.00,VWS V14.01,2013-04-04 01:15:00,
2013-04-03 21:17:00,57.3,39.8,30.17,NW,309,1.0,2.0,52,0.00,,OVC090,0.00,VWS V14.01,2013-04-04 01:17:00,
2013-04-03 21:22:00,57.3,39.8,30.17,North,360,0.0,2.0,52,0.00,,OVC090,0.00,VWS V14.01,2013-04-04 01:22:00,
2013-04-03 21:28:00,57.3,39.8,30.17,NE,56,0.0,4.0,52,0.00,,OVC090,0.00,VWS V14.01,2013-04-04 01:28:00,
2013-04-03 21:30:00,57.3,39.8,30.17,NE,56,0.0,4.0,52,0.00,,SCT070,0.00,VWS V14.01,2013-04-04 01:30:00,
2013-04-03 21:33:00,57.2,39.8,30.17,NE,56,0.0,0.0,52,0.00,,OVC090,0.00,VWS V14.01,2013-04-04 01:33:00,
2013-04-03 21:38:00,57.2,39.8,30.17,NE,56,0.0,0.0,52,0.00,,OVC090,0.00,VWS V14.01,2013-04-04 01:38:00,
2013-04-03 21:45:00,57.1,40.2,30.17,NE,56,0.0,0.0,53,0.00,,OVC090,0.00,VWS V14.01,2013-04-04 01:45:00,
2013-04-03 21:55:00,56.9,40.4,30.18,NE,56,0.0,0.0,54,0.00,,OVC090,0.00,VWS V14.01,2013-04-04 01:55:00,
2013-04-03 22:00:00,56.8,40.3,30.18,NE,56,0.0,1.0,54,0.00,,OVC090,0.00,VWS V14.01,2013-04-04 02:00:00,
2013-04-03 22:05:00,56.8,39.9,30.18,NE,56,0.0,3.0,53,0.00,,OVC090,0.00,VWS V14.01,2013-04-04 02:05:00,
2013-04-03 22:11:00,56.8,39.9,30.18,NE,56,0.0,3.0,53,0.00,,OVC090,0.00,VWS V14.01,2013-04-04 02:11:00,
2013-04-03 22:15:00,56.8,39.9,30.18,ENE,57,0.0,3.0,53,0.00,,CLR,0.00,VWS V14.01,2013-04-04 02:15:00,
2013-04-03 22:16:00,56.8,39.9,30.18,ENE,57,0.0,1.0,53,0.00,,OVC090,0.00,VWS V14.01,2013-04-04 02:16:00,
2013-04-03 22:22:00,56.7,39.8,30.18,ENE,57,0.0,1.0,53,0.00,,OVC090,0.00,VWS V14.01,2013-04-04 02:22:00,
2013-04-03 22:27:00,56.7,40.3,30.18,ENE,57,0.0,1.0,54,0.00,,OVC090,0.00,VWS V14.01,2013-04-04 02:27:00,
2013-04-03 22:30:00,56.6,40.6,30.18,NE,56,0.0,1.0,55,0.00,,CLR,0.00,VWS V14.01,2013-04-04 02:30:00,
2013-04-03 22:32:00,56.6,41.1,30.18,ENE,57,0.0,0.0,56,0.00,,OVC090,0.00,VWS V14.01,2013-04-04 02:32:00,
2013-04-03 22:38:00,56.4,40.9,30.18,NE,56,0.0,2.0,56,0.00,,OVC090,0.00,VWS V14.01,2013-04-04 02:38:00,
2013-04-03 22:43:00,56.2,42.1,30.19,NE,56,0.0,2.0,59,0.00,,OVC090,0.00,VWS V14.01,2013-04-04 02:43:00,
2013-04-03 22:45:00,56.0,42.3,30.19,NE,56,0.0,2.0,60,0.00,,CLR,0.00,VWS V14.01,2013-04-04 02:45:00,
2013-04-03 22:48:00,55.8,42.6,30.19,NE,56,0.0,0.0,61,0.00,,OVC090,0.00,VWS V14.01,2013-04-04 02:48:00,
2013-04-03 22:54:00,55.5,41.9,30.19,NE,56,0.0,0.0,60,0.00,,OVC090,0.00,VWS V14.01,2013-04-04 02:54:00,
2013-04-03 22:59:00,55.3,41.7,30.19,NE,56,0.0,1.0,60,0.00,,OVC090,0.00,VWS V14.01,2013-04-04 02:59:00,
2013-04-03 23:00:00,55.2,41.6,30.19,NE,56,0.0,1.0,60,0.00,,CLR,0.00,VWS V14.01,2013-04-04 03:00:00,
2013-04-03 23:05:00,55.2,42.0,30.19,NE,56,0.0,0.0,61,0.00,,OVC090,0.00,VWS V14.01,2013-04-04 03:05:00,
2013-04-03 23:10:00,55.1,42.3,30.20,NE,56,0.0,0.0,62,0.00,,OVC090,0.00,VWS V14.01,2013-04-04 03:10:00,
2013-04-03 23:15:00,55.1,42.3,30.21,NE,56,0.0,1.0,62,0.00,,OVC090,0.00,VWS V14.01,2013-04-04 03:15:00,
2013-04-03 23:21:00,55.0,43.1,30.21,NE,56,0.0,0.0,64,0.00,,OVC090,0.00,VWS V14.01,2013-04-04 03:21:00,
2013-04-03 23:26:00,54.8,44.1,30.21,NE,56,0.0,0.0,67,0.00,,OVC090,0.00,VWS V14.01,2013-04-04 03:26:00,
2013-04-03 23:30:00,54.6,43.5,30.21,NE,56,0.0,0.0,66,0.00,,CLR,0.00,VWS V14.01,2013-04-04 03:30:00,
2013-04-03 23:32:00,54.5,44.2,30.20,NE,56,0.0,0.0,68,0.00,,OVC090,0.00,VWS V14.01,2013-04-04 03:32:00,
2013-04-03 23:37:00,54.2,45.0,30.21,NE,56,0.0,0.0,71,0.00,,OVC090,0.00,VWS V14.01,2013-04-04 03:37:00,
2013-04-03 23:43:00,53.7,45.6,30.21,NE,56,0.0,0.0,74,0.00,,OVC090,0.00,VWS V14.01,2013-04-04 03:43:00,
2013-04-03 23:45:00,53.4,45.3,30.21,NE,56,0.0,0.0,74,0.00,,CLR,0.00,VWS V14.01,2013-04-04 03:45:00,
2013-04-03 23:48:00,53.2,45.5,30.21,NE,56,0.0,0.0,75,0.00,,OVC090,0.00,VWS V14.01,2013-04-04 03:48:00,